Time;durP1;ratioP1;P1;durP2;ratioP2;P2;SDS_P1;SDS_P2;PMS_P1;PMS_P2;Temp;Humidity;BMP_temperature;BMP_pressure;BME280_temperature;BME280_humidity;BME280_pressure;Samples;Min_cycle;Max_cycle;Signal;HPM_P1;HPM_P2
2021/07/31 00:00:18;;;;;;;9.63;7.25;;;28.40;60.50;;;;;;6149676;23;20375;-64
2021/07/31 00:03:04;;;;;;;10.85;7.40;;;28.40;60.40;;;;;;6149499;23;20034;-64
2021/07/31 00:05:30;;;;;;;11.60;7.70;;;28.40;60.20;;;;;;6149460;23;20096;-64
2021/07/31 00:07:56;;;;;;;15.68;7.68;;;28.40;60.30;;;;;;6153104;23;20052;-64
2021/07/31 00:10:21;;;;;;;8.90;7.20;;;28.40;60.10;;;;;;6151615;23;20468;-64
2021/07/31 00:12:48;;;;;;;8.65;7.38;;;28.40;60.70;;;;;;6149845;23;20013;-64
2021/07/31 00:15:14;;;;;;;10.65;8.20;;;28.40;60.30;;;;;;6153510;23;20017;-64
2021/07/31 00:17:40;;;;;;;12.20;7.85;;;28.40;60.10;;;;;;6149584;23;20028;-66
2021/07/31 00:20:07;;;;;;;15.50;8.18;;;28.40;60.10;;;;;;6148567;23;20071;-64
2021/07/31 00:22:33;;;;;;;8.18;7.38;;;28.40;60.00;;;;;;6153567;23;20360;-64
2021/07/31 00:24:58;;;;;;;17.25;8.80;;;28.30;60.10;;;;;;6149444;23;20029;-64
2021/07/31 00:27:25;;;;;;;9.63;7.25;;;28.40;60.00;;;;;;6149428;23;20033;-64
2021/07/31 00:29:51;;;;;;;11.77;7.47;;;28.40;60.00;;;;;;6149754;23;20052;-64
2021/07/31 00:32:17;;;;;;;12.38;7.85;;;28.40;60.00;;;;;;6150013;23;20502;-64
2021/07/31 00:34:44;;;;;;;10.35;7.63;;;28.40;60.00;;;;;;6149592;23;20037;-64
2021/07/31 00:37:09;;;;;;;10.65;7.55;;;28.40;59.90;;;;;;6148326;23;20022;-64
2021/07/31 00:39:38;;;;;;;10.43;7.60;;;28.40;59.90;;;;;;6149544;23;20021;-64
2021/07/31 00:42:06;;;;;;;13.45;7.75;;;28.30;59.90;;;;;;6149940;23;20044;-64
2021/07/31 00:44:32;;;;;;;11.77;7.65;;;28.30;59.90;;;;;;6151174;23;20076;-64
2021/07/31 00:46:58;;;;;;;9.45;7.38;;;28.30;59.90;;;;;;6153687;23;20025;-64
2021/07/31 00:49:25;;;;;;;12.30;7.47;;;28.30;59.90;;;;;;6149634;23;20515;-64
2021/07/31 00:51:51;;;;;;;9.82;7.25;;;28.30;59.90;;;;;;6150965;23;20025;-64
2021/07/31 00:54:17;;;;;;;9.48;7.53;;;28.30;60.00;;;;;;6177309;23;20025;-64
2021/07/31 00:56:45;;;;;;;14.45;7.85;;;28.30;59.90;;;;;;6151208;23;20095;-64
2021/07/31 00:59:11;;;;;;;11.57;7.43;;;28.30;59.90;;;;;;6151033;23;20614;-64
2021/07/31 01:01:40;;;;;;;8.52;7.10;;;28.30;60.00;;;;;;6174414;23;20439;-64
2021/07/31 01:04:07;;;;;;;9.23;7.95;;;28.30;59.90;;;;;;6151087;23;20049;-64
2021/07/31 01:06:33;;;;;;;10.40;6.95;;;28.30;59.90;;;;;;6155422;23;20460;-64
2021/07/31 01:09:01;;;;;;;10.15;7.90;;;28.30;60.00;;;;;;6153387;23;20479;-64
2021/07/31 01:11:27;;;;;;;9.35;7.18;;;28.30;60.00;;;;;;6151022;23;20432;-64
2021/07/31 01:13:59;;;;;;;10.10;7.78;;;28.30;60.00;;;;;;6154723;23;20025;-64
2021/07/31 01:16:27;;;;;;;12.10;7.63;;;28.30;60.00;;;;;;6176413;23;20022;-64
2021/07/31 01:18:54;;;;;;;13.20;7.93;;;28.30;60.00;;;;;;6150669;23;20034;-64
2021/07/31 01:21:40;;;;;;;16.55;7.32;;;28.30;60.00;;;;;;6152773;23;20025;-64
2021/07/31 01:24:27;;;;;;;10.70;7.47;;;28.30;60.10;;;;;;6150891;23;20049;-64
2021/07/31 01:26:53;;;;;;;9.45;7.63;;;28.30;60.00;;;;;;6153072;23;20021;-64
2021/07/31 01:29:20;;;;;;;9.60;7.43;;;28.30;60.00;;;;;;6150880;23;20383;-64
2021/07/31 01:31:48;;;;;;;9.85;7.32;;;28.30;60.10;;;;;;6150903;23;20060;-64
2021/07/31 01:34:15;;;;;;;10.70;8.20;;;28.30;60.10;;;;;;6151288;23;20067;-64
2021/07/31 01:36:41;;;;;;;10.45;7.30;;;28.30;60.00;;;;;;6151166;23;20413;-64
2021/07/31 01:39:12;;;;;;;12.55;7.40;;;28.30;60.00;;;;;;6173999;23;20421;-64
2021/07/31 01:41:39;;;;;;;9.75;7.95;;;28.20;60.00;;;;;;6175903;23;20044;-64
2021/07/31 01:44:05;;;;;;;10.73;7.90;;;28.30;60.10;;;;;;6150634;23;20048;-64
2021/07/31 01:46:31;;;;;;;9.40;7.63;;;28.30;60.20;;;;;;6174271;23;20029;-64
2021/07/31 01:48:57;;;;;;;9.10;7.30;;;28.30;60.20;;;;;;6174089;23;20080;-64
2021/07/31 01:51:27;;;;;;;14.23;7.40;;;28.20;60.10;;;;;;6173625;23;20031;-64
2021/07/31 01:53:53;;;;;;;12.38;7.45;;;28.20;60.30;;;;;;6150281;23;20510;-64
2021/07/31 01:56:20;;;;;;;9.70;7.85;;;28.20;60.30;;;;;;6150984;23;20471;-64
2021/07/31 01:58:46;;;;;;;10.90;7.95;;;28.20;60.30;;;;;;6149208;23;20072;-64
2021/07/31 02:01:12;;;;;;;8.63;7.32;;;28.20;60.40;;;;;;6148833;23;20052;-64
2021/07/31 02:03:40;;;;;;;7.85;7.15;;;28.20;60.50;;;;;;6151252;23;20059;-64
2021/07/31 02:06:25;;;;;;;8.85;7.07;;;28.20;60.50;;;;;;6150667;23;20029;-63
2021/07/31 02:08:52;;;;;;;7.60;6.90;;;28.20;60.60;;;;;;6151555;23;20344;-64
2021/07/31 02:11:19;;;;;;;9.15;6.97;;;28.20;60.60;;;;;;6124927;23;20025;-64
2021/07/31 02:13:48;;;;;;;9.63;7.22;;;28.20;60.60;;;;;;6149306;23;20085;-63
2021/07/31 02:16:25;;;;;;;9.68;7.15;;;28.20;60.60;;;;;;6152824;23;20522;-64
2021/07/31 02:18:52;;;;;;;7.93;7.18;;;28.20;60.70;;;;;;6150374;23;20057;-63
2021/07/31 02:21:20;;;;;;;12.05;7.00;;;28.20;60.70;;;;;;6150705;23;20022;-63
2021/07/31 02:24:04;;;;;;;11.30;7.32;;;28.20;60.60;;;;;;6149927;23;20053;-63
2021/07/31 02:26:53;;;;;;;8.32;7.10;;;28.20;60.70;;;;;;6149535;23;20032;-63
2021/07/31 02:29:26;;;;;;;6.88;6.28;;;28.20;60.70;;;;;;6150753;23;21005;-65
2021/07/31 02:31:52;;;;;;;7.65;6.82;;;28.20;60.80;;;;;;6148830;23;20522;-63
2021/07/31 02:34:18;;;;;;;9.23;6.60;;;28.20;60.80;;;;;;6150236;23;20021;-63
2021/07/31 02:36:46;;;;;;;6.93;6.32;;;28.20;60.80;;;;;;6149441;23;20068;-63
2021/07/31 02:39:26;;;;;;;12.18;7.15;;;28.20;61.30;;;;;;6150648;23;20026;-64
2021/07/31 02:41:52;;;;;;;11.15;7.57;;;28.20;60.60;;;;;;6149845;23;20494;-64
2021/07/31 02:44:19;;;;;;;6.97;6.47;;;28.20;60.60;;;;;;6148762;23;20022;-64
2021/07/31 02:46:46;;;;;;;7.13;6.38;;;28.10;60.60;;;;;;6174996;23;20031;-64
2021/07/31 02:49:13;;;;;;;6.88;6.18;;;28.20;60.60;;;;;;6148640;23;20030;-63
2021/07/31 02:51:39;;;;;;;6.88;6.00;;;28.20;60.70;;;;;;6150182;23;20029;-64
2021/07/31 02:54:05;;;;;;;7.50;6.38;;;28.20;60.60;;;;;;6152203;23;20037;-64
2021/07/31 02:56:33;;;;;;;9.82;6.38;;;28.20;60.60;;;;;;6148491;23;20060;-64
2021/07/31 02:59:02;;;;;;;8.30;6.32;;;28.20;60.60;;;;;;6151645;23;20055;-64
2021/07/31 03:01:30;;;;;;;8.85;7.20;;;28.20;60.50;;;;;;6148600;23;20055;-64
2021/07/31 03:03:56;;;;;;;9.77;6.68;;;28.20;60.50;;;;;;6149933;23;20132;-64
2021/07/31 03:06:24;;;;;;;7.63;6.05;;;28.20;60.40;;;;;;6148322;23;20021;-64
2021/07/31 03:08:51;;;;;;;7.00;6.30;;;28.10;60.40;;;;;;6150141;23;20400;-64
2021/07/31 03:11:17;;;;;;;6.60;6.00;;;28.10;60.30;;;;;;6148392;23;20057;-64
2021/07/31 03:13:43;;;;;;;9.90;6.80;;;28.10;60.30;;;;;;6151976;23;20029;-64
2021/07/31 03:16:09;;;;;;;7.20;6.50;;;28.10;60.30;;;;;;6149985;23;20029;-64
2021/07/31 03:18:42;;;;;;;10.75;6.45;;;28.10;60.20;;;;;;6148261;23;20057;-64
2021/07/31 03:21:12;;;;;;;6.55;5.80;;;28.10;60.30;;;;;;6175527;23;20460;-64
2021/07/31 03:23:51;;;;;;;8.48;6.55;;;28.10;60.20;;;;;;6148216;23;20044;-64
2021/07/31 03:26:17;;;;;;;8.00;6.22;;;28.10;60.30;;;;;;6153026;23;20021;-64
2021/07/31 03:28:43;;;;;;;10.88;6.57;;;28.10;60.20;;;;;;6148340;23;20145;-63
2021/07/31 03:31:23;;;;;;;10.82;6.35;;;28.10;60.20;;;;;;6149524;23;20045;-64
2021/07/31 03:33:52;;;;;;;;;;;28.10;60.40;;;;;;6174095;23;20407;-65
2021/07/31 03:36:18;;;;;;;10.68;7.13;;;28.10;60.40;;;;;;6149673;23;19963;-64
2021/07/31 03:38:56;;;;;;;9.10;5.97;;;28.10;60.30;;;;;;6149831;23;20021;-63
2021/07/31 03:41:24;;;;;;;7.80;7.05;;;28.10;60.40;;;;;;6148065;23;20411;-63
2021/07/31 03:43:54;;;;;;;14.25;6.85;;;28.10;60.30;;;;;;6148201;23;20087;-63
2021/07/31 03:46:20;;;;;;;7.25;6.50;;;28.10;60.40;;;;;;6150427;23;20032;-64
2021/07/31 03:48:47;;;;;;;9.88;6.32;;;28.10;60.50;;;;;;6173213;23;20412;-63
2021/07/31 03:51:15;;;;;;;9.52;6.03;;;28.10;60.50;;;;;;6150054;23;20393;-63
2021/07/31 03:53:45;;;;;;;6.45;5.80;;;28.10;60.50;;;;;;6150931;23;20025;-63
2021/07/31 03:56:12;;;;;;;9.02;6.20;;;28.10;60.60;;;;;;6147726;23;20063;-63
2021/07/31 03:58:42;;;;;;;7.63;6.80;;;28.10;60.60;;;;;;6153171;23;20060;-63
2021/07/31 04:01:08;;;;;;;7.80;5.93;;;28.10;60.60;;;;;;6149610;23;20048;-63
2021/07/31 04:03:35;;;;;;;7.22;6.43;;;28.10;60.60;;;;;;6149439;23;20089;-63
2021/07/31 04:06:02;;;;;;;6.45;5.63;;;28.10;60.60;;;;;;6151777;23;20030;-63
2021/07/31 04:08:43;;;;;;;9.10;6.50;;;28.10;60.70;;;;;;6149787;23;20446;-64
2021/07/31 04:11:28;;;;;;;9.82;6.15;;;28.10;60.70;;;;;;6152627;23;20723;-63
2021/07/31 04:14:13;;;;;;;7.85;6.63;;;28.10;60.80;;;;;;6149440;23;20049;-64
2021/07/31 04:16:44;;;;;;;8.40;6.70;;;28.10;60.90;;;;;;6176276;23;20021;-64
2021/07/31 04:19:12;;;;;;;10.07;6.53;;;28.10;60.80;;;;;;6149961;23;20300;-64
2021/07/31 04:21:41;;;;;;;10.43;5.68;;;28.10;60.80;;;;;;6175081;23;20088;-64
2021/07/31 04:24:10;;;;;;;8.30;6.60;;;28.20;60.90;;;;;;6174732;23;20036;-64
2021/07/31 04:26:35;;;;;;;6.80;5.93;;;28.10;60.80;;;;;;6151684;23;20100;-63
2021/07/31 04:29:03;;;;;;;8.38;6.70;;;28.20;60.90;;;;;;6151323;23;20128;-64
2021/07/31 04:31:29;;;;;;;6.95;6.28;;;28.10;60.90;;;;;;6151329;23;20399;-64
2021/07/31 04:33:55;;;;;;;6.00;5.47;;;28.20;61.10;;;;;;6152420;23;20018;-64
2021/07/31 04:36:22;;;;;;;7.45;5.50;;;28.20;61.20;;;;;;6151391;23;20048;-64
2021/07/31 04:38:47;;;;;;;6.45;5.93;;;28.20;61.40;;;;;;6151543;23;20021;-64
2021/07/31 04:41:14;;;;;;;7.03;6.43;;;28.10;61.30;;;;;;6151794;23;20521;-64
2021/07/31 04:43:40;;;;;;;6.32;5.43;;;28.10;61.40;;;;;;6151207;23;20080;-64
2021/07/31 04:46:06;;;;;;;7.18;5.65;;;28.20;61.50;;;;;;6154171;23;20025;-64
2021/07/31 04:48:31;;;;;;;8.13;6.25;;;28.20;61.50;;;;;;6151598;23;20029;-63
2021/07/31 04:51:00;;;;;;;6.93;6.22;;;28.20;61.60;;;;;;6151105;23;20040;-64
2021/07/31 04:53:27;;;;;;;6.88;6.25;;;28.20;61.60;;;;;;6154389;23;20025;-64
2021/07/31 04:55:54;;;;;;;9.45;6.50;;;28.20;61.70;;;;;;6151579;23;20029;-64
2021/07/31 04:58:20;;;;;;;9.25;6.63;;;28.20;61.70;;;;;;6150898;23;20049;-63
2021/07/31 05:00:47;;;;;;;6.97;5.78;;;28.20;61.70;;;;;;6151472;23;20104;-64
2021/07/31 05:03:14;;;;;;;7.07;6.32;;;28.20;61.70;;;;;;6151271;23;20477;-64
2021/07/31 05:05:42;;;;;;;7.40;6.72;;;28.20;61.70;;;;;;6150825;23;20088;-64
2021/07/31 05:08:08;;;;;;;7.30;6.50;;;28.20;61.70;;;;;;6151165;23;20022;-63
2021/07/31 05:10:41;;;;;;;7.82;6.35;;;28.20;61.60;;;;;;6152436;23;20368;-64
2021/07/31 05:13:09;;;;;;;8.60;5.97;;;28.20;61.70;;;;;;6151304;23;20476;-64
2021/07/31 05:15:39;;;;;;;7.22;6.63;;;28.20;61.70;;;;;;6128171;23;20017;-64
2021/07/31 05:18:06;;;;;;;6.70;5.82;;;28.20;61.90;;;;;;6150814;23;20048;-64
2021/07/31 05:20:33;;;;;;;6.75;6.10;;;28.20;61.80;;;;;;6150955;23;20092;-64
2021/07/31 05:23:00;;;;;;;7.30;6.25;;;28.20;61.80;;;;;;6151050;23;20036;-66
2021/07/31 05:25:27;;;;;;;6.70;6.00;;;28.20;61.80;;;;;;6150656;23;20088;-64
2021/07/31 05:27:53;;;;;;;7.40;6.63;;;28.20;61.90;;;;;;6150955;23;20052;-64
2021/07/31 05:30:19;;;;;;;6.55;5.82;;;28.20;61.90;;;;;;6150452;23;20021;-65
2021/07/31 05:32:45;;;;;;;7.47;6.68;;;28.20;61.90;;;;;;6151065;23;20022;-64
2021/07/31 05:35:11;;;;;;;6.93;6.13;;;28.20;62.00;;;;;;6150977;23;20112;-64
2021/07/31 05:37:37;;;;;;;7.22;6.53;;;28.20;61.90;;;;;;6150756;23;20018;-64
2021/07/31 05:40:04;;;;;;;7.82;6.95;;;28.20;62.00;;;;;;6149978;23;20027;-64
2021/07/31 05:42:30;;;;;;;6.68;6.00;;;28.20;62.00;;;;;;6150751;23;20028;-64
2021/07/31 05:44:57;;;;;;;7.32;6.70;;;28.20;62.10;;;;;;6151859;23;20359;-64
2021/07/31 05:47:28;;;;;;;10.68;7.10;;;28.20;62.20;;;;;;6174165;23;20424;-64
2021/07/31 05:49:56;;;;;;;7.05;6.35;;;28.20;62.30;;;;;;6151022;23;20061;-64
2021/07/31 05:52:25;;;;;;;7.03;6.35;;;28.20;62.30;;;;;;6153431;23;20021;-65
2021/07/31 05:54:58;;;;;;;8.75;6.82;;;28.20;62.40;;;;;;6150940;23;20014;-65
2021/07/31 05:57:25;;;;;;;7.38;6.25;;;28.20;62.60;;;;;;6150838;23;20017;-64
2021/07/31 05:59:51;;;;;;;7.95;7.07;;;28.20;62.50;;;;;;6150523;23;20021;-64
2021/07/31 06:02:17;;;;;;;7.57;6.57;;;28.20;62.50;;;;;;6151018;23;20471;-64
2021/07/31 06:04:44;;;;;;;8.77;6.82;;;28.20;62.50;;;;;;6150665;23;20103;-64
2021/07/31 06:07:11;;;;;;;7.07;6.45;;;28.20;62.60;;;;;;6152561;23;20056;-64
2021/07/31 06:09:38;;;;;;;7.80;6.57;;;28.20;62.60;;;;;;6150520;23;20029;-64
2021/07/31 06:12:06;;;;;;;6.80;6.22;;;28.10;62.60;;;;;;6150862;23;20049;-64
2021/07/31 06:14:37;;;;;;;7.72;6.93;;;28.10;62.60;;;;;;6150536;23;20033;-64
2021/07/31 06:17:05;;;;;;;7.63;6.22;;;28.20;62.70;;;;;;6150288;23;20030;-64
2021/07/31 06:19:32;;;;;;;8.13;7.30;;;28.20;63.20;;;;;;6150383;23;20053;-64
2021/07/31 06:22:00;;;;;;;7.57;6.97;;;28.20;62.60;;;;;;6148928;23;20028;-64
2021/07/31 06:24:27;;;;;;;7.43;6.80;;;28.20;62.60;;;;;;6150490;23;20415;-64
2021/07/31 06:26:54;;;;;;;7.15;6.57;;;28.20;62.50;;;;;;6150024;23;20532;-64
2021/07/31 06:29:21;;;;;;;7.57;6.82;;;28.20;62.50;;;;;;6149963;23;20021;-64
2021/07/31 06:31:47;;;;;;;7.60;7.00;;;28.20;62.40;;;;;;6150556;23;20022;-64
2021/07/31 06:34:14;;;;;;;7.07;6.28;;;28.30;62.50;;;;;;6150654;23;20025;-64
2021/07/31 06:36:42;;;;;;;7.78;6.10;;;28.30;62.50;;;;;;6151448;23;20028;-64
2021/07/31 06:39:08;;;;;;;7.53;6.55;;;28.30;62.50;;;;;;6150226;23;20022;-64
2021/07/31 06:41:34;;;;;;;6.72;6.15;;;28.30;62.40;;;;;;6150127;23;20097;-64
2021/07/31 06:44:00;;;;;;;7.30;6.47;;;28.30;62.40;;;;;;6150059;23;20076;-64
2021/07/31 06:46:27;;;;;;;6.97;6.38;;;28.30;62.40;;;;;;6150231;23;21448;-64
2021/07/31 06:48:54;;;;;;;7.00;6.40;;;28.30;62.40;;;;;;6150501;23;20132;-64
2021/07/31 06:51:21;;;;;;;7.50;6.75;;;28.30;62.40;;;;;;6150519;23;20022;-65
2021/07/31 06:53:48;;;;;;;8.23;7.47;;;28.30;62.40;;;;;;6150631;23;20464;-64
2021/07/31 06:56:15;;;;;;;7.45;6.70;;;28.30;62.40;;;;;;6150509;23;20416;-64
2021/07/31 06:58:41;;;;;;;7.15;6.45;;;28.30;62.40;;;;;;6150148;23;20126;-64
2021/07/31 07:01:12;;;;;;;7.72;7.03;;;28.30;62.50;;;;;;6148957;23;20025;-64
2021/07/31 07:03:39;;;;;;;6.65;6.15;;;28.30;63.20;;;;;;6151129;23;20057;-64
2021/07/31 07:06:07;;;;;;;8.10;6.78;;;28.30;62.60;;;;;;6150487;23;20045;-64
2021/07/31 07:08:33;;;;;;;7.38;6.68;;;28.30;62.70;;;;;;6154057;23;20029;-64
2021/07/31 07:11:00;;;;;;;7.03;6.43;;;28.30;62.80;;;;;;6150148;23;20413;-64
2021/07/31 07:13:26;;;;;;;7.78;7.18;;;28.30;62.80;;;;;;6150178;23;20041;-64
2021/07/31 07:15:52;;;;;;;8.18;7.03;;;28.30;62.90;;;;;;6150051;23;20028;-64
2021/07/31 07:18:19;;;;;;;7.70;7.00;;;28.30;63.00;;;;;;6150203;23;20029;-65
2021/07/31 07:20:45;;;;;;;6.80;6.25;;;28.30;63.10;;;;;;6149895;23;20472;-64
2021/07/31 07:23:12;;;;;;;8.13;7.43;;;28.30;63.10;;;;;;6148115;23;20032;-64
2021/07/31 07:25:41;;;;;;;7.68;6.85;;;28.20;63.00;;;;;;6149681;23;20532;-64
2021/07/31 07:28:07;;;;;;;8.20;7.15;;;28.30;63.20;;;;;;6149933;23;20490;-64
2021/07/31 07:30:33;;;;;;;7.53;6.93;;;28.30;63.20;;;;;;6149880;23;20025;-64
2021/07/31 07:33:00;;;;;;;7.15;6.65;;;28.30;63.20;;;;;;6150273;23;20052;-64
2021/07/31 07:35:26;;;;;;;9.20;7.53;;;28.30;63.20;;;;;;6149941;23;20021;-64
2021/07/31 07:37:52;;;;;;;6.75;6.15;;;28.20;63.30;;;;;;6149655;23;20017;-64
2021/07/31 07:40:19;;;;;;;7.80;7.10;;;28.20;63.40;;;;;;6149751;23;20025;-65
2021/07/31 07:42:45;;;;;;;7.53;6.70;;;28.20;63.40;;;;;;6150127;23;20017;-64
2021/07/31 07:45:11;;;;;;;7.97;7.18;;;28.20;63.50;;;;;;6149349;23;20104;-64
2021/07/31 07:47:37;;;;;;;7.60;6.88;;;28.20;63.60;;;;;;6149765;23;20597;-64
2021/07/31 07:50:05;;;;;;;7.47;6.78;;;28.20;63.50;;;;;;6149920;23;20049;-64
2021/07/31 07:52:32;;;;;;;7.40;6.75;;;28.20;63.60;;;;;;6149318;23;20048;-64
2021/07/31 07:54:58;;;;;;;7.50;6.82;;;28.20;63.60;;;;;;6149999;23;20065;-64
2021/07/31 07:57:24;;;;;;;8.10;7.40;;;28.20;63.60;;;;;;6149383;23;20542;-64
2021/07/31 07:59:50;;;;;;;7.45;6.82;;;28.20;63.60;;;;;;6149509;23;20021;-64
2021/07/31 08:02:16;;;;;;;7.93;7.32;;;28.20;63.60;;;;;;6149869;23;20100;-64
2021/07/31 08:04:44;;;;;;;7.57;6.93;;;28.20;63.70;;;;;;6148340;23;20096;-64
2021/07/31 08:07:13;;;;;;;8.68;7.70;;;28.20;63.90;;;;;;6149486;23;20022;-64
2021/07/31 08:09:40;;;;;;;7.85;7.05;;;28.10;64.00;;;;;;6149591;23;20048;-64
2021/07/31 08:12:07;;;;;;;10.27;7.15;;;28.10;64.30;;;;;;6150031;23;20169;-64
2021/07/31 08:14:34;;;;;;;7.60;6.90;;;28.10;64.30;;;;;;6149741;23;20022;-64
2021/07/31 08:17:01;;;;;;;7.30;6.60;;;28.00;64.30;;;;;;6149475;23;20048;-64
2021/07/31 08:19:27;;;;;;;7.93;6.80;;;28.00;64.40;;;;;;6150972;23;20021;-64
2021/07/31 08:21:53;;;;;;;8.40;7.55;;;28.00;64.40;;;;;;6149821;23;20029;-64
2021/07/31 08:24:20;;;;;;;8.25;7.57;;;28.00;64.50;;;;;;6149574;23;20022;-65
2021/07/31 08:26:46;;;;;;;7.85;7.15;;;28.10;64.40;;;;;;6149792;23;20026;-65
2021/07/31 08:29:12;;;;;;;10.75;8.35;;;28.10;64.40;;;;;;6149874;23;20348;-64
2021/07/31 08:31:41;;;;;;;7.82;7.05;;;28.10;64.40;;;;;;6149798;23;20417;-64
2021/07/31 08:34:08;;;;;;;10.27;7.75;;;28.10;64.60;;;;;;6151333;23;20029;-64
2021/07/31 08:36:34;;;;;;;8.32;7.50;;;28.00;64.50;;;;;;6149497;23;20511;-64
2021/07/31 08:39:01;;;;;;;8.52;7.35;;;28.10;64.60;;;;;;6172468;23;20028;-64
2021/07/31 08:41:27;;;;;;;8.45;7.60;;;28.10;64.40;;;;;;6149805;23;20029;-64
2021/07/31 08:43:55;;;;;;;10.73;7.45;;;28.20;64.40;;;;;;6149615;23;20025;-65
2021/07/31 08:46:22;;;;;;;8.85;7.95;;;28.20;64.30;;;;;;6149391;23;20483;-64
2021/07/31 08:48:48;;;;;;;8.23;7.53;;;28.20;64.20;;;;;;6149670;23;20022;-64
2021/07/31 08:51:16;;;;;;;8.32;7.60;;;28.20;64.20;;;;;;6149673;23;20029;-65
2021/07/31 08:53:43;;;;;;;8.93;8.13;;;28.30;64.20;;;;;;6149356;23;20018;-64
2021/07/31 08:56:09;;;;;;;8.80;7.63;;;28.30;64.20;;;;;;6151416;23;20088;-64
2021/07/31 08:58:40;;;;;;;9.30;8.38;;;28.30;64.20;;;;;;6148191;23;20087;-64
2021/07/31 09:01:07;;;;;;;8.18;7.35;;;28.20;64.10;;;;;;6149588;23;20029;-64
2021/07/31 09:03:50;;;;;;;8.02;7.32;;;28.30;64.20;;;;;;6150178;23;20072;-65
2021/07/31 09:06:32;;;;;;;8.25;7.55;;;28.30;64.30;;;;;;6151311;23;20056;-65
2021/07/31 09:08:59;;;;;;;7.82;7.22;;;28.30;64.20;;;;;;6174292;23;20029;-65
2021/07/31 09:11:26;;;;;;;8.40;7.70;;;28.30;64.20;;;;;;6150914;23;20059;-65
2021/07/31 09:14:09;;;;;;;8.13;7.32;;;28.30;64.20;;;;;;6153465;23;20022;-65
2021/07/31 09:16:35;;;;;;;;;;;28.30;64.20;;;;;;6151242;23;20052;-65
2021/07/31 09:19:11;;;;;;;8.45;7.20;;;28.30;64.20;;;;;;6151105;23;19916;-65
2021/07/31 09:21:37;;;;;;;7.53;6.55;;;28.30;64.10;;;;;;6150854;23;20096;-64
2021/07/31 09:24:20;;;;;;;7.82;7.22;;;28.30;64.10;;;;;;6154433;23;20045;-66
2021/07/31 09:26:52;;;;;;;9.02;7.57;;;28.40;64.10;;;;;;6151047;23;20024;-64
2021/07/31 09:29:33;;;;;;;8.00;7.07;;;28.40;64.10;;;;;;6154632;23;20013;-65
2021/07/31 09:32:02;;;;;;;8.35;7.60;;;28.30;64.10;;;;;;6150797;23;20025;-65
2021/07/31 09:34:30;;;;;;;7.45;6.78;;;28.30;64.00;;;;;;6154868;23;20021;-65
2021/07/31 09:37:18;;;;;;;7.28;6.57;;;28.30;64.00;;;;;;6151666;23;20025;-65
2021/07/31 09:40:02;;;;;;;7.65;6.95;;;28.30;64.10;;;;;;6151097;23;20044;-64
2021/07/31 09:42:39;;;;;;;7.32;6.70;;;28.30;64.00;;;;;;6150938;23;20026;-64
2021/07/31 09:45:17;;;;;;;10.07;7.18;;;28.30;64.10;;;;;;6150952;23;20022;-64
2021/07/31 09:48:04;;;;;;;8.25;7.50;;;28.30;64.20;;;;;;6151136;23;20021;-64
2021/07/31 09:50:38;;;;;;;7.70;7.07;;;28.20;64.20;;;;;;6151088;23;20026;-64
2021/07/31 09:53:15;;;;;;;7.20;6.60;;;28.30;64.30;;;;;;6150818;23;20428;-64
2021/07/31 09:55:55;;;;;;;7.57;6.95;;;28.20;64.20;;;;;;6150725;23;20052;-63
2021/07/31 09:58:22;;;;;;;7.95;7.25;;;28.20;64.20;;;;;;6151004;23;20482;-64
2021/07/31 10:00:53;;;;;;;7.25;6.55;;;28.20;64.30;;;;;;6151003;23;20041;-63
2021/07/31 10:03:19;;;;;;;7.40;6.75;;;28.20;64.20;;;;;;6152396;23;20026;-65
2021/07/31 10:05:45;;;;;;;7.47;6.80;;;28.20;64.20;;;;;;6150999;23;20025;-63
2021/07/31 10:08:13;;;;;;;7.05;6.50;;;28.20;64.20;;;;;;6150564;23;20049;-64
2021/07/31 10:10:39;;;;;;;7.07;6.55;;;28.20;64.10;;;;;;6150227;23;20025;-63
2021/07/31 10:13:05;;;;;;;6.80;6.22;;;28.20;64.00;;;;;;6150372;23;20025;-64
2021/07/31 10:15:32;;;;;;;6.43;5.82;;;28.20;63.90;;;;;;6150249;23;20048;-64
2021/07/31 10:17:59;;;;;;;7.28;6.72;;;28.20;63.90;;;;;;6150395;23;20025;-64
2021/07/31 10:20:30;;;;;;;5.97;5.57;;;28.20;63.70;;;;;;6150664;23;20028;-64
2021/07/31 10:22:56;;;;;;;5.95;5.53;;;28.20;63.70;;;;;;6150376;23;20109;-64
2021/07/31 10:25:23;;;;;;;6.50;6.00;;;28.20;63.60;;;;;;6150095;23;20385;-64
2021/07/31 10:27:53;;;;;;;6.25;5.75;;;28.20;63.60;;;;;;6150103;23;20022;-64
2021/07/31 10:30:34;;;;;;;6.32;5.82;;;28.20;63.60;;;;;;6150378;23;20025;-64
2021/07/31 10:33:01;;;;;;;7.40;6.15;;;28.20;63.60;;;;;;6150462;23;20040;-64
2021/07/31 10:35:36;;;;;;;5.82;5.40;;;28.10;63.60;;;;;;6150537;23;20105;-64
2021/07/31 10:38:08;;;;;;;8.23;6.07;;;28.20;63.50;;;;;;6151224;23;20092;-65
2021/07/31 10:40:39;;;;;;;6.03;5.00;;;28.20;63.50;;;;;;6150819;23;20417;-64
2021/07/31 10:43:07;;;;;;;5.43;5.13;;;28.20;63.50;;;;;;6152223;23;20029;-64
2021/07/31 10:45:34;;;;;;;5.35;4.93;;;28.20;63.40;;;;;;6149924;23;20463;-64
2021/07/31 10:48:25;;;;;;;5.78;5.38;;;28.20;63.40;;;;;;6150170;23;20049;-65
2021/07/31 10:50:51;;;;;;;5.50;5.10;;;28.20;63.20;;;;;;6149986;23;20041;-65
2021/07/31 10:53:19;;;;;;;5.40;5.00;;;28.10;63.30;;;;;;6150323;23;20096;-65
2021/07/31 10:55:47;;;;;;;5.57;5.10;;;28.10;63.40;;;;;;6150459;23;20023;-65
2021/07/31 10:58:13;;;;;;;5.53;5.10;;;28.10;63.20;;;;;;6149846;23;20140;-64
2021/07/31 11:00:45;;;;;;;5.53;5.13;;;28.20;63.20;;;;;;6150149;23;20093;-64
2021/07/31 11:03:21;;;;;;;5.53;5.13;;;28.10;63.00;;;;;;6148559;23;20059;-64
2021/07/31 11:05:58;;;;;;;5.28;4.75;;;28.10;63.20;;;;;;6150234;23;20029;-64
2021/07/31 11:08:32;;;;;;;5.80;5.30;;;28.20;63.00;;;;;;6151511;23;20022;-65
2021/07/31 11:10:59;;;;;;;6.43;5.20;;;28.10;62.80;;;;;;6150094;23;20028;-64
2021/07/31 11:13:26;;;;;;;5.25;4.80;;;28.20;63.00;;;;;;6150061;23;20021;-64
2021/07/31 11:15:59;;;;;;;9.93;5.45;;;28.20;63.10;;;;;;6150420;23;20579;-64
2021/07/31 11:18:42;;;;;;;6.47;5.90;;;28.20;63.30;;;;;;6149800;23;20152;-63
2021/07/31 11:21:19;;;;;;;8.18;6.30;;;28.20;63.50;;;;;;6150752;23;20303;-64
2021/07/31 11:23:51;;;;;;;8.18;5.95;;;28.20;63.70;;;;;;6150382;23;20048;-66
2021/07/31 11:26:37;;;;;;;12.57;7.75;;;28.20;63.90;;;;;;6151162;23;20021;-65
2021/07/31 11:29:07;;;;;;;15.98;7.50;;;28.20;64.00;;;;;;6149850;23;20480;-63
2021/07/31 11:31:33;;;;;;;11.48;7.38;;;28.20;64.00;;;;;;6150978;23;20025;-65
2021/07/31 11:34:05;;;;;;;7.50;6.20;;;28.20;64.10;;;;;;6150015;23;20027;-64
2021/07/31 11:36:38;;;;;;;11.13;6.60;;;28.20;64.20;;;;;;6150094;23;20103;-64
2021/07/31 11:39:06;;;;;;;11.20;7.88;;;28.20;64.20;;;;;;6149523;23;20032;-65
2021/07/31 11:41:41;;;;;;;9.05;7.22;;;28.20;64.10;;;;;;6153263;23;20033;-64
2021/07/31 11:44:09;;;;;;;12.93;8.38;;;28.20;64.10;;;;;;6149326;23;20462;-64
2021/07/31 11:46:55;;;;;;;13.65;7.55;;;28.10;64.20;;;;;;6149947;23;20031;-65
2021/07/31 11:49:25;;;;;;;11.63;7.80;;;28.10;64.30;;;;;;6149468;23;20044;-64
2021/07/31 11:51:53;;;;;;;19.17;7.70;;;28.20;64.30;;;;;;6150011;23;20044;-65
2021/07/31 11:54:19;;;;;;;10.73;7.10;;;28.20;64.40;;;;;;6150122;23;20033;-64
2021/07/31 11:56:47;;;;;;;11.65;6.90;;;28.20;64.40;;;;;;6148766;23;20100;-64
2021/07/31 11:59:23;;;;;;;11.85;7.07;;;28.20;64.50;;;;;;6149500;23;20328;-64
2021/07/31 12:01:55;;;;;;;18.15;6.82;;;28.20;64.50;;;;;;6149474;23;20017;-65
2021/07/31 12:04:42;;;;;;;11.10;6.10;;;28.20;64.50;;;;;;6149480;23;20045;-64
2021/07/31 12:07:13;;;;;;;11.50;7.35;;;28.20;64.50;;;;;;6149551;23;20069;-64
2021/07/31 12:09:44;;;;;;;11.57;6.50;;;28.20;64.60;;;;;;6153829;23;20024;-64
2021/07/31 12:12:24;;;;;;;15.07;6.33;;;28.20;64.60;;;;;;6149864;23;20064;-65
2021/07/31 12:15:12;;;;;;;10.43;6.50;;;28.20;64.70;;;;;;6149816;23;20021;-64
2021/07/31 12:17:39;;;;;;;12.77;6.57;;;28.20;64.90;;;;;;6148098;23;20052;-64
2021/07/31 12:20:06;;;;;;;11.63;6.35;;;28.20;65.20;;;;;;6149426;23;20025;-65
2021/07/31 12:22:35;;;;;;;10.77;6.22;;;28.20;65.40;;;;;;6152601;23;20021;-65
2021/07/31 12:25:13;;;;;;;7.25;5.95;;;28.20;65.80;;;;;;6149598;23;20113;-65
2021/07/31 12:27:55;;;;;;;7.75;5.90;;;28.30;66.20;;;;;;6152854;23;20025;-65
2021/07/31 12:30:26;;;;;;;7.70;5.88;;;28.30;66.20;;;;;;6149107;23;20403;-65
2021/07/31 12:33:13;;;;;;;6.97;5.30;;;28.30;65.60;;;;;;6176650;23;20048;-65
2021/07/31 12:35:58;;;;;;;6.35;5.47;;;28.30;65.70;;;;;;6147802;23;20028;-65
2021/07/31 12:38:28;;;;;;;6.45;5.75;;;28.30;65.90;;;;;;6150206;23;20021;-65
2021/07/31 12:41:01;;;;;;;12.63;6.68;;;28.30;66.10;;;;;;6151438;23;20100;-65
2021/07/31 12:43:29;;;;;;;9.93;6.13;;;28.30;66.00;;;;;;6154448;23;20075;-65
2021/07/31 12:46:00;;;;;;;10.68;5.97;;;28.30;66.20;;;;;;6151526;23;20072;-65
2021/07/31 12:48:26;;;;;;;6.78;5.85;;;28.30;66.20;;;;;;6151598;23;20028;-66
2021/07/31 12:50:53;;;;;;;9.40;5.97;;;28.30;66.60;;;;;;6151982;23;20456;-65
2021/07/31 12:53:20;;;;;;;6.53;5.82;;;28.30;66.70;;;;;;6151225;23;20041;-66
2021/07/31 12:55:46;;;;;;;8.63;5.75;;;28.30;66.50;;;;;;6151446;23;20017;-66